Terminal Aerodrome Forecast
Issued by NWS

Home | Current Version | Previous Version | Text Only | Print | Product List | Glossary On
Versions: 1 2 3 4 5 6 7 8 9 10 11 12
782
FTPA31 PHFO 281741
TAFHKO
TAF
PHKO 281741Z 2818/0118 VRB05KT P6SM SCT035 OVC150
     FM282200 20008KT P6SM VCSH SCT030 BKN050 OVC120
     FM010300 VRB06KT P6SM VCTS SCT025CB BKN050 OVC100=

USA.gov is the U.S. government's official web portal to all federal, state and local government web resources and services.